createdAt,value
2022-11-13T00:01:24.915Z,33.85
2022-11-13T00:03:53.079Z,34.17
2022-11-13T00:06:20.181Z,33.30
2022-11-13T00:08:52.789Z,36.70
2022-11-13T00:11:22.043Z,35.15
2022-11-13T00:13:49.423Z,36.30
2022-11-13T00:16:18.851Z,37.95
2022-11-13T00:18:50.653Z,38.00
2022-11-13T00:23:50.469Z,36.22
2022-11-13T00:26:27.522Z,39.72
2022-11-13T00:28:56.631Z,36.58
2022-11-13T00:31:23.743Z,38.35
2022-11-13T00:36:39.841Z,40.67
2022-11-13T00:39:06.517Z,38.17
2022-11-13T00:41:33.244Z,36.90
2022-11-13T00:44:00.142Z,41.75
2022-11-13T00:46:27.007Z,40.90
2022-11-13T00:48:56.132Z,36.83
2022-11-13T00:51:22.938Z,38.08
2022-11-13T00:53:49.631Z,38.40
2022-11-13T00:56:16.360Z,37.42
2022-11-13T00:58:45.239Z,39.70
2022-11-13T01:01:17.789Z,37.97
2022-11-13T01:03:47.406Z,35.45
2022-11-13T01:06:26.660Z,38.40
2022-11-13T01:09:00.630Z,39.70
2022-11-13T01:11:29.393Z,35.90
2022-11-13T01:13:57.028Z,36.20
2022-11-13T01:16:28.181Z,36.35
2022-11-13T01:18:56.411Z,36.00
2022-11-13T01:21:25.886Z,38.15
2022-11-13T01:23:53.755Z,36.45
2022-11-13T01:26:27.462Z,36.47
2022-11-13T01:28:55.588Z,37.10
2022-11-13T01:31:25.103Z,38.40
2022-11-13T01:33:52.335Z,37.53
2022-11-13T01:36:21.803Z,37.95
2022-11-13T01:38:50.524Z,35.20
2022-11-13T01:41:31.090Z,35.55
2022-11-13T01:43:58.588Z,37.83
2022-11-13T01:46:45.557Z,33.88
2022-11-13T01:49:12.197Z,36.28
2022-11-13T01:51:40.140Z,34.53
2022-11-13T01:54:19.043Z,33.58
2022-11-13T01:56:46.093Z,36.03
2022-11-13T01:59:27.968Z,34.75
2022-11-13T02:04:25.575Z,33.58
2022-11-13T02:06:59.221Z,33.13
2022-11-13T02:09:33.548Z,33.13
2022-11-13T02:12:00.849Z,32.22
2022-11-13T02:14:29.465Z,32.55
2022-11-13T02:17:00.118Z,32.25
2022-11-13T02:19:31.465Z,32.45
2022-11-13T02:22:16.872Z,31.25
2022-11-13T02:24:47.884Z,31.05
2022-11-13T02:27:45.349Z,30.92
2022-11-13T02:30:32.183Z,32.08
2022-11-13T02:32:59.614Z,29.13
2022-11-13T02:35:33.398Z,30.05
2022-11-13T02:38:04.547Z,29.02
2022-11-13T02:40:32.650Z,29.17
2022-11-13T02:43:01.532Z,28.27
2022-11-13T02:45:28.310Z,28.80
2022-11-13T02:47:55.057Z,29.33
2022-11-13T02:50:21.866Z,29.70
2022-11-13T02:52:50.843Z,28.02
2022-11-13T02:55:18.032Z,28.27
2022-11-13T02:57:44.736Z,28.27
2022-11-13T03:00:14.235Z,27.50
2022-11-13T03:02:41.433Z,26.38
2022-11-13T03:05:13.650Z,27.13
2022-11-13T03:07:41.493Z,26.50
2022-11-13T03:10:09.857Z,25.75
2022-11-13T03:12:41.411Z,26.15
2022-11-13T03:15:09.069Z,26.95
2022-11-13T03:17:35.897Z,24.65
2022-11-13T03:20:02.763Z,25.60
2022-11-13T03:22:31.619Z,24.63
2022-11-13T03:25:00.595Z,23.52
2022-11-13T03:27:27.333Z,24.65
2022-11-13T03:29:54.021Z,24.65
2022-11-13T03:32:23.164Z,23.35
2022-11-13T03:34:50.105Z,25.80
2022-11-13T03:37:16.868Z,24.52
2022-11-13T03:39:43.545Z,23.98
2022-11-13T03:42:10.238Z,24.00
2022-11-13T03:44:37.032Z,23.40
2022-11-13T03:47:06.144Z,21.70
2022-11-13T03:49:35.137Z,23.30
2022-11-13T03:52:01.889Z,21.75
2022-11-13T03:54:28.646Z,22.08
2022-11-13T03:56:57.608Z,22.33
2022-11-13T03:59:24.377Z,21.13
2022-11-13T04:01:53.366Z,21.02
2022-11-13T04:04:20.319Z,20.65
2022-11-13T04:06:47.047Z,19.52
2022-11-13T04:09:16.161Z,20.48
2022-11-13T04:11:45.022Z,20.40
2022-11-13T04:14:14.034Z,19.38
2022-11-13T04:16:43.240Z,19.02
2022-11-13T04:19:12.395Z,19.17
2022-11-13T04:21:39.303Z,18.20
2022-11-13T04:24:06.448Z,17.88
2022-11-13T04:26:35.345Z,17.60
2022-11-13T04:29:02.038Z,17.58
2022-11-13T04:31:28.776Z,17.50
2022-11-13T04:33:55.643Z,18.23
2022-11-13T04:36:22.312Z,18.00
2022-11-13T04:38:51.595Z,18.08
2022-11-13T04:41:36.742Z,17.70
2022-11-13T04:44:05.688Z,17.60
2022-11-13T04:46:32.373Z,17.75
2022-11-13T04:48:59.088Z,18.25
2022-11-13T04:51:25.790Z,17.25
2022-11-13T04:53:52.734Z,17.38
2022-11-13T04:56:19.417Z,17.38
2022-11-13T04:58:46.146Z,17.08
2022-11-13T05:01:12.942Z,16.90
2022-11-13T05:03:39.652Z,17.23
2022-11-13T05:06:08.678Z,17.30
2022-11-13T05:08:35.999Z,16.20
2022-11-13T05:11:03.798Z,17.13
2022-11-13T05:13:34.657Z,16.73
2022-11-13T05:16:06.036Z,17.40
2022-11-13T05:18:34.253Z,15.90
2022-11-13T05:21:03.966Z,17.05
2022-11-13T05:23:30.885Z,16.27
2022-11-13T05:26:09.737Z,17.23
2022-11-13T05:28:37.408Z,15.73
2022-11-13T05:31:12.443Z,16.25
2022-11-13T05:33:40.446Z,15.40
2022-11-13T05:36:12.616Z,15.02
2022-11-13T05:38:42.244Z,16.27
2022-11-13T05:41:14.124Z,15.82
2022-11-13T05:43:41.511Z,15.38
2022-11-13T05:46:17.180Z,16.20
2022-11-13T05:48:46.798Z,16.08
2022-11-13T05:51:19.883Z,15.40
2022-11-13T05:53:46.891Z,15.68
2022-11-13T05:56:17.070Z,16.00
2022-11-13T05:58:46.708Z,17.08
2022-11-13T06:01:23.222Z,16.38
2022-11-13T06:03:50.797Z,15.95
2022-11-13T06:06:20.759Z,16.10
2022-11-13T06:08:48.726Z,15.52
2022-11-13T06:11:18.770Z,16.13
2022-11-13T06:13:46.371Z,14.70
2022-11-13T06:16:16.046Z,15.15
2022-11-13T06:18:46.155Z,15.55
2022-11-13T06:21:15.471Z,15.52
2022-11-13T06:23:44.488Z,15.20
2022-11-13T06:26:17.534Z,15.73
2022-11-13T06:28:44.330Z,15.70
2022-11-13T06:31:16.132Z,14.55
2022-11-13T06:36:15.787Z,14.73
2022-11-13T06:38:43.831Z,14.68
2022-11-13T06:41:12.755Z,14.93
2022-11-13T06:43:40.000Z,15.05
2022-11-13T06:46:11.494Z,14.68
2022-11-13T06:48:40.623Z,14.65
2022-11-13T06:51:11.832Z,15.13
2022-11-13T06:53:38.512Z,15.02
2022-11-13T06:56:06.530Z,14.77
2022-11-13T06:58:33.858Z,15.75
2022-11-13T07:01:12.726Z,15.30
2022-11-13T07:03:40.253Z,14.57
2022-11-13T07:06:11.788Z,14.93
2022-11-13T07:08:38.532Z,15.75
2022-11-13T07:11:07.689Z,15.93
2022-11-13T07:13:36.560Z,15.13
2022-11-13T07:16:15.928Z,15.32
2022-11-13T07:18:43.429Z,15.77
2022-11-13T07:21:13.383Z,15.02
2022-11-13T07:23:43.609Z,15.32
2022-11-13T07:26:13.757Z,15.68
2022-11-13T07:28:40.585Z,14.70
2022-11-13T07:31:10.710Z,15.55
2022-11-13T07:33:37.590Z,15.95
2022-11-13T07:36:04.736Z,14.82
2022-11-13T07:38:31.989Z,14.75
2022-11-13T07:41:02.171Z,14.68
2022-11-13T07:43:32.068Z,14.40
2022-11-13T07:46:01.958Z,15.27
2022-11-13T07:48:29.300Z,14.80
2022-11-13T07:51:00.040Z,13.38
2022-11-13T07:53:26.751Z,14.43
2022-11-13T07:55:53.436Z,13.65
2022-11-13T07:58:20.211Z,14.60
2022-11-13T08:00:47.025Z,13.85
2022-11-13T08:03:15.924Z,14.38
2022-11-13T08:05:42.997Z,14.52
2022-11-13T08:08:12.562Z,15.40
2022-11-13T08:10:39.578Z,14.15
2022-11-13T08:13:09.256Z,14.38
2022-11-13T08:15:37.070Z,13.60
2022-11-13T08:18:04.863Z,14.75
2022-11-13T08:20:31.872Z,14.07
2022-11-13T08:23:02.328Z,13.55
2022-11-13T08:25:30.870Z,14.25
2022-11-13T08:27:58.086Z,14.02
2022-11-13T08:30:26.858Z,13.93
2022-11-13T08:32:55.987Z,14.13
2022-11-13T08:35:28.051Z,13.77
2022-11-13T08:38:02.602Z,13.80
2022-11-13T08:40:29.616Z,14.18
2022-11-13T08:43:00.677Z,13.55
2022-11-13T08:45:29.491Z,13.27
2022-11-13T08:48:03.481Z,13.55
2022-11-13T08:50:31.273Z,14.13
2022-11-13T08:52:59.388Z,13.27
2022-11-13T08:55:26.980Z,13.32
2022-11-13T08:57:53.943Z,12.30
2022-11-13T09:00:21.019Z,12.95
2022-11-13T09:02:47.706Z,13.25
2022-11-13T09:05:17.196Z,13.70
2022-11-13T09:07:46.711Z,12.88
2022-11-13T09:10:15.615Z,12.80
2022-11-13T09:12:44.955Z,12.90
2022-11-13T09:15:21.697Z,13.27
2022-11-13T09:17:51.075Z,12.93
2022-11-13T09:20:22.482Z,13.10
2022-11-13T09:22:55.813Z,13.05
2022-11-13T09:25:22.590Z,13.23
2022-11-13T09:27:57.243Z,13.50
2022-11-13T09:30:27.332Z,13.50
2022-11-13T09:32:58.639Z,13.15
2022-11-13T09:35:38.684Z,13.27
2022-11-13T09:38:11.724Z,13.27
2022-11-13T09:40:43.415Z,12.65
2022-11-13T09:43:34.419Z,12.70
2022-11-13T09:46:20.354Z,12.88
2022-11-13T09:48:53.204Z,12.18
2022-11-13T09:51:27.755Z,12.82
2022-11-13T09:53:55.004Z,13.13
2022-11-13T09:56:32.800Z,12.63
2022-11-13T09:59:27.674Z,12.43
2022-11-13T10:01:57.794Z,12.15
2022-11-13T10:04:50.226Z,11.90
2022-11-13T10:07:19.350Z,11.88
2022-11-13T10:10:00.356Z,12.68
2022-11-13T10:12:30.220Z,12.43
2022-11-13T10:15:02.282Z,12.30
2022-11-13T10:17:33.370Z,12.15
2022-11-13T10:20:05.031Z,13.02
2022-11-13T10:25:16.629Z,12.10
2022-11-13T10:28:00.278Z,12.23
2022-11-13T10:30:29.673Z,11.95
2022-11-13T10:33:04.425Z,12.20
2022-11-13T10:35:42.042Z,11.70
2022-11-13T10:38:22.339Z,12.75
2022-11-13T10:40:49.139Z,12.95
2022-11-13T10:43:20.544Z,12.07
2022-11-13T10:46:17.558Z,10.93
2022-11-13T10:48:44.288Z,11.68
2022-11-13T10:51:35.227Z,11.32
2022-11-13T10:54:34.670Z,11.18
2022-11-13T10:57:17.133Z,11.38
2022-11-13T10:59:46.452Z,11.55
2022-11-13T11:02:21.676Z,11.55
2022-11-13T11:04:50.086Z,12.23
2022-11-13T11:07:25.045Z,11.25
2022-11-13T11:09:52.047Z,11.63
2022-11-13T11:12:30.200Z,11.07
2022-11-13T11:14:59.479Z,11.30
2022-11-13T11:17:46.957Z,11.05
2022-11-13T11:20:41.204Z,11.23
2022-11-13T11:23:36.262Z,10.75
2022-11-13T11:26:21.263Z,10.48
2022-11-13T11:29:02.109Z,11.38
2022-11-13T11:31:35.643Z,10.52
2022-11-13T11:34:24.218Z,10.75
2022-11-13T11:36:59.677Z,10.30
2022-11-13T11:39:42.209Z,10.95
2022-11-13T11:42:38.659Z,10.40
2022-11-13T11:45:30.077Z,11.35
2022-11-13T11:47:58.998Z,10.70
2022-11-13T11:50:58.847Z,10.93
2022-11-13T11:53:54.368Z,10.50
2022-11-13T11:56:50.090Z,10.52
2022-11-13T11:59:22.408Z,10.75
2022-11-13T12:01:51.917Z,11.48
2022-11-13T12:04:58.299Z,10.93
2022-11-13T12:07:40.923Z,11.18
2022-11-13T12:10:19.770Z,10.85
2022-11-13T12:13:02.872Z,10.95
2022-11-13T12:16:00.352Z,11.35
2022-11-13T12:18:45.261Z,10.75
2022-11-13T12:21:27.830Z,11.32
2022-11-13T12:24:15.134Z,10.93
2022-11-13T12:26:52.035Z,12.50
2022-11-13T12:29:48.548Z,12.13
2022-11-13T12:32:39.372Z,10.88
2022-11-13T12:35:19.807Z,11.23
2022-11-13T12:38:05.864Z,11.25
2022-11-13T12:41:02.435Z,11.45
2022-11-13T12:44:19.727Z,11.57
2022-11-13T12:46:49.655Z,10.93
2022-11-13T12:49:39.222Z,10.90
2022-11-13T12:52:20.578Z,12.10
2022-11-13T12:54:50.441Z,11.30
2022-11-13T12:57:27.270Z,11.52
2022-11-13T12:59:58.953Z,11.63
2022-11-13T13:02:49.402Z,10.60
2022-11-13T13:05:31.586Z,10.98
2022-11-13T13:08:22.073Z,10.65
2022-11-13T13:11:04.390Z,10.95
2022-11-13T13:13:40.054Z,10.85
2022-11-13T13:16:08.770Z,10.52
2022-11-13T13:18:37.845Z,11.65
2022-11-13T13:21:10.454Z,11.20
2022-11-13T13:23:45.928Z,11.10
2022-11-13T13:26:21.999Z,10.95
2022-11-13T13:28:53.825Z,11.13
2022-11-13T13:31:29.391Z,11.25
2022-11-13T13:34:35.548Z,12.18
2022-11-13T13:37:24.744Z,11.77
2022-11-13T13:40:08.785Z,11.02
2022-11-13T13:42:41.386Z,10.93
2022-11-13T13:45:48.346Z,11.32
2022-11-13T13:48:21.539Z,11.52
2022-11-13T13:50:50.358Z,11.80
2022-11-13T13:53:25.983Z,11.90
2022-11-13T13:55:56.426Z,12.00
2022-11-13T13:58:28.307Z,11.70
2022-11-13T14:01:22.973Z,11.18
2022-11-13T14:03:51.906Z,10.73
2022-11-13T14:06:24.485Z,10.73
2022-11-13T14:08:56.636Z,11.32
2022-11-13T14:11:29.800Z,11.45
2022-11-13T14:14:07.949Z,10.93
2022-11-13T14:16:36.854Z,11.52
2022-11-13T14:19:07.289Z,11.63
2022-11-13T14:21:34.161Z,10.63
2022-11-13T14:24:02.538Z,11.40
2022-11-13T14:26:29.991Z,11.60
2022-11-13T14:28:59.843Z,11.48
2022-11-13T14:31:35.485Z,11.68
2022-11-13T14:34:12.991Z,10.98
2022-11-13T14:36:40.813Z,10.82
2022-11-13T14:39:20.594Z,11.48
2022-11-13T14:41:52.208Z,11.55
2022-11-13T14:47:04.187Z,10.93
2022-11-13T14:49:35.948Z,10.98
2022-11-13T14:52:03.168Z,11.05
2022-11-13T14:55:08.179Z,11.57
2022-11-13T14:57:24.922Z,11.95
2022-11-13T14:59:57.594Z,12.10
2022-11-13T15:02:29.856Z,12.50
2022-11-13T15:05:01.327Z,11.35
2022-11-13T15:07:40.030Z,11.93
2022-11-13T15:10:11.502Z,11.63
2022-11-13T15:12:38.586Z,11.48
2022-11-13T15:15:05.877Z,10.80
2022-11-13T15:17:32.970Z,11.60
2022-11-13T15:20:09.600Z,11.63
2022-11-13T15:22:39.984Z,12.48
2022-11-13T15:25:15.981Z,12.73
2022-11-13T15:27:43.544Z,13.00
2022-11-13T15:30:11.450Z,13.02
2022-11-13T15:32:38.337Z,11.93
2022-11-13T15:35:09.184Z,11.88
2022-11-13T15:37:35.917Z,11.43
2022-11-13T15:40:03.648Z,12.13
2022-11-13T15:42:34.662Z,12.23
2022-11-13T15:45:02.897Z,11.73
2022-11-13T15:47:35.460Z,12.25
2022-11-13T15:50:19.669Z,12.88
2022-11-13T15:52:50.150Z,11.93
2022-11-13T15:55:29.938Z,12.98
2022-11-13T15:57:59.733Z,12.32
2022-11-13T16:00:28.143Z,12.73
2022-11-13T16:02:57.756Z,12.07
2022-11-13T16:05:29.435Z,11.98
2022-11-13T16:08:01.459Z,12.85
2022-11-13T16:10:28.424Z,12.25
2022-11-13T16:12:55.506Z,12.77
2022-11-13T16:15:22.383Z,12.07
2022-11-13T16:17:55.019Z,12.30
2022-11-13T16:20:23.916Z,13.07
2022-11-13T16:22:50.757Z,12.27
2022-11-13T16:25:22.691Z,12.10
2022-11-13T16:27:49.428Z,12.70
2022-11-13T16:30:21.192Z,12.68
2022-11-13T16:32:48.316Z,12.82
2022-11-13T16:35:20.530Z,13.23
2022-11-13T16:37:47.720Z,13.48
2022-11-13T16:40:26.198Z,13.18
2022-11-13T16:42:53.695Z,12.80
2022-11-13T16:45:23.584Z,13.23
2022-11-13T16:47:53.002Z,13.55
2022-11-13T16:50:28.033Z,14.25
2022-11-13T16:52:56.894Z,13.63
2022-11-13T16:55:24.173Z,12.95
2022-11-13T16:57:53.080Z,13.95
2022-11-13T17:00:20.517Z,13.77
2022-11-13T17:02:51.371Z,14.82
2022-11-13T17:05:19.044Z,14.90
2022-11-13T17:07:46.006Z,14.88
2022-11-13T17:10:31.481Z,14.20
2022-11-13T17:13:01.517Z,13.82
2022-11-13T17:15:29.334Z,13.77
2022-11-13T17:18:01.369Z,13.13
2022-11-13T17:20:30.747Z,14.85
2022-11-13T17:22:57.541Z,15.05
2022-11-13T17:25:26.797Z,14.90
2022-11-13T17:27:53.670Z,14.65
2022-11-13T17:30:22.977Z,13.65
2022-11-13T17:32:52.075Z,16.42
2022-11-13T17:35:18.783Z,15.48
2022-11-13T17:37:47.687Z,15.82
2022-11-13T17:40:22.617Z,16.27
2022-11-13T17:42:52.023Z,16.25
2022-11-13T17:45:23.917Z,16.52
2022-11-13T17:47:56.422Z,15.73
2022-11-13T17:50:26.187Z,17.00
2022-11-13T17:52:55.803Z,17.45
2022-11-13T17:55:27.862Z,17.05
2022-11-13T17:58:01.082Z,17.65
2022-11-13T18:00:35.872Z,17.58
2022-11-13T18:03:02.625Z,18.65
2022-11-13T18:05:32.026Z,21.70
2022-11-13T18:08:05.959Z,21.70
2022-11-13T18:10:33.730Z,27.77
2022-11-13T18:13:06.060Z,23.75
2022-11-13T18:15:37.139Z,22.17
2022-11-13T18:18:08.006Z,19.20
2022-11-13T18:20:35.473Z,19.48
2022-11-13T18:23:05.203Z,18.75
2022-11-13T18:25:39.713Z,18.80
2022-11-13T18:28:06.686Z,18.25
2022-11-13T18:30:37.223Z,18.58
2022-11-13T18:33:06.205Z,19.38
2022-11-13T18:35:35.596Z,22.20
2022-11-13T18:38:04.536Z,25.65
2022-11-13T18:40:33.436Z,23.67
2022-11-13T18:43:02.431Z,25.40
2022-11-13T18:45:31.671Z,26.63
2022-11-13T18:47:58.397Z,26.40
2022-11-13T18:50:30.748Z,28.60
2022-11-13T18:53:00.560Z,31.58
2022-11-13T18:55:29.878Z,30.95
2022-11-13T18:57:59.636Z,29.92
2022-11-13T19:00:26.541Z,30.52
2022-11-13T19:02:58.455Z,28.52
2022-11-13T19:05:28.278Z,30.17
2022-11-13T19:07:57.606Z,27.58
2022-11-13T19:10:27.477Z,25.80
2022-11-13T19:12:54.220Z,25.98
2022-11-13T19:15:21.212Z,25.58
2022-11-13T19:17:52.821Z,25.63
2022-11-13T19:20:22.085Z,25.88
2022-11-13T19:22:54.459Z,23.67
2022-11-13T19:25:21.234Z,23.30
2022-11-13T19:27:50.868Z,21.95
2022-11-13T19:30:23.440Z,24.10
2022-11-13T19:32:55.612Z,23.08
2022-11-13T19:35:28.494Z,24.25
2022-11-13T19:38:02.365Z,24.60
2022-11-13T19:40:33.850Z,23.88
2022-11-13T19:43:06.339Z,23.70
2022-11-13T19:45:38.448Z,23.50
2022-11-13T19:48:07.886Z,28.10
2022-11-13T19:50:41.037Z,26.13
2022-11-13T19:53:09.931Z,22.90
2022-11-13T19:55:41.381Z,27.02
2022-11-13T19:58:15.914Z,28.77
2022-11-13T20:00:45.715Z,25.17
2022-11-13T20:03:17.082Z,26.23
2022-11-13T20:05:49.043Z,24.77
2022-11-13T20:08:18.972Z,25.00
2022-11-13T20:10:45.782Z,23.02
2022-11-13T20:13:17.250Z,22.65
2022-11-13T20:15:44.212Z,21.88
2022-11-13T20:18:14.338Z,23.88
2022-11-13T20:20:49.197Z,23.73
2022-11-13T20:23:23.530Z,27.70
2022-11-13T20:26:03.692Z,29.52
2022-11-13T20:28:33.114Z,29.75
2022-11-13T20:31:14.187Z,28.95
2022-11-13T20:33:45.533Z,28.97
2022-11-13T20:36:18.024Z,36.58
2022-11-13T20:38:50.515Z,31.05
2022-11-13T20:41:20.392Z,33.78
2022-11-13T20:43:53.858Z,29.48
2022-11-13T20:46:21.532Z,27.27
2022-11-13T20:48:51.313Z,27.80
2022-11-13T20:51:20.823Z,26.05
2022-11-13T20:53:48.391Z,26.20
2022-11-13T20:56:22.043Z,26.92
2022-11-13T20:58:51.470Z,26.77
2022-11-13T21:01:27.578Z,26.42
2022-11-13T21:03:59.491Z,26.58
2022-11-13T21:06:33.928Z,25.63
2022-11-13T21:09:03.829Z,23.63
2022-11-13T21:11:33.328Z,23.58
2022-11-13T21:14:06.542Z,21.60
2022-11-13T21:16:36.976Z,22.65
2022-11-13T21:19:03.760Z,21.58
2022-11-13T21:21:32.987Z,20.35
2022-11-13T21:24:01.855Z,20.27
2022-11-13T21:26:28.971Z,19.13
2022-11-13T21:28:56.652Z,19.23
2022-11-13T21:31:23.719Z,18.85
2022-11-13T21:33:51.015Z,19.80
2022-11-13T21:36:23.931Z,19.17
2022-11-13T21:38:55.207Z,19.52
2022-11-13T21:41:26.872Z,19.58
2022-11-13T21:46:33.427Z,19.83
2022-11-13T21:49:07.131Z,19.83
2022-11-13T21:51:35.508Z,21.50
2022-11-13T21:54:07.670Z,21.50
2022-11-13T21:56:36.373Z,22.27
2022-11-13T21:59:06.005Z,19.85
2022-11-13T22:01:38.661Z,21.55
2022-11-13T22:04:06.672Z,21.00
2022-11-13T22:06:37.628Z,20.42
2022-11-13T22:09:13.022Z,20.87
2022-11-13T22:11:42.881Z,19.65
2022-11-13T22:14:09.826Z,18.15
2022-11-13T22:16:39.433Z,20.15
2022-11-13T22:19:22.676Z,19.48
2022-11-13T22:21:54.298Z,19.83
2022-11-13T22:24:24.282Z,19.35
2022-11-13T22:26:53.479Z,19.90
2022-11-13T22:29:22.355Z,19.95
2022-11-13T22:31:51.293Z,19.60
2022-11-13T22:34:20.324Z,19.02
2022-11-13T22:36:47.100Z,19.05
2022-11-13T22:39:13.825Z,19.25
2022-11-13T22:41:43.005Z,19.55
2022-11-13T22:44:13.143Z,19.15
2022-11-13T22:46:42.323Z,19.38
2022-11-13T22:49:12.292Z,19.20
2022-11-13T22:51:42.796Z,20.50
2022-11-13T22:54:11.493Z,19.38
2022-11-13T22:56:39.799Z,19.05
2022-11-13T22:59:09.427Z,18.55
2022-11-13T23:01:40.257Z,20.25
2022-11-13T23:04:13.278Z,20.45
2022-11-13T23:06:43.222Z,20.35
2022-11-13T23:09:10.635Z,19.98
2022-11-13T23:11:39.582Z,19.88
2022-11-13T23:14:13.029Z,20.98
2022-11-13T23:16:39.863Z,21.85
2022-11-13T23:19:07.006Z,21.98
2022-11-13T23:21:36.032Z,19.98
2022-11-13T23:24:05.451Z,22.05
2022-11-13T23:26:34.397Z,22.15
2022-11-13T23:29:04.163Z,23.30
2022-11-13T23:31:33.807Z,21.85
2022-11-13T23:34:02.768Z,20.75
2022-11-13T23:36:32.186Z,22.50
2022-11-13T23:38:58.971Z,21.58
2022-11-13T23:41:27.949Z,23.35
2022-11-13T23:44:12.569Z,24.48
2022-11-13T23:46:43.352Z,23.15
2022-11-13T23:49:10.139Z,22.70
2022-11-13T23:51:39.047Z,25.35
2022-11-13T23:54:05.930Z,23.60
2022-11-13T23:56:34.864Z,22.27
2022-11-13T23:59:04.115Z,22.92
